createdAt,value
2023-04-30T00:00:48.169Z,985.00
2023-04-30T00:01:48.173Z,982.00
2023-04-30T00:02:48.218Z,992.00
2023-04-30T00:03:48.224Z,988.00
2023-04-30T00:04:48.203Z,991.00
2023-04-30T00:05:48.211Z,988.00
2023-04-30T00:06:48.212Z,977.00
2023-04-30T00:07:48.239Z,995.00
2023-04-30T00:08:48.286Z,984.00
2023-04-30T00:09:48.289Z,998.00
2023-04-30T00:10:48.320Z,992.00
2023-04-30T00:11:48.338Z,1002.00
2023-04-30T00:12:48.330Z,995.00
2023-04-30T00:13:48.368Z,1003.00
2023-04-30T00:14:48.392Z,986.00
2023-04-30T00:15:48.382Z,982.00
2023-04-30T00:16:48.441Z,983.00
2023-04-30T00:17:48.503Z,982.00
2023-04-30T00:18:48.471Z,984.00
2023-04-30T00:19:48.472Z,980.00
2023-04-30T00:20:48.501Z,982.00
2023-04-30T00:21:48.543Z,973.00
2023-04-30T00:22:48.545Z,981.00
2023-04-30T00:23:48.564Z,983.00
2023-04-30T00:24:48.590Z,981.00
2023-04-30T00:25:48.602Z,971.00
2023-04-30T00:26:48.641Z,981.00
2023-04-30T00:27:48.622Z,970.00
2023-04-30T00:28:48.649Z,972.00
2023-04-30T00:29:48.657Z,979.00
2023-04-30T00:30:48.672Z,986.00
2023-04-30T00:31:48.689Z,984.00
2023-04-30T00:32:48.848Z,987.00
2023-04-30T00:33:48.743Z,977.00
2023-04-30T00:34:48.709Z,985.00
2023-04-30T00:35:48.741Z,972.00
2023-04-30T00:36:48.782Z,996.00
2023-04-30T00:37:48.787Z,992.00
2023-04-30T00:38:48.855Z,976.00
2023-04-30T00:39:48.820Z,987.00
2023-04-30T00:40:48.837Z,989.00
2023-04-30T00:41:48.837Z,983.00
2023-04-30T00:42:48.901Z,989.00
2023-04-30T00:43:48.870Z,985.00
2023-04-30T00:44:48.905Z,976.00
2023-04-30T00:45:48.975Z,987.00
2023-04-30T00:46:48.959Z,1002.00
2023-04-30T00:47:48.972Z,994.00
2023-04-30T00:48:48.987Z,1001.00
2023-04-30T00:49:48.965Z,991.00
2023-04-30T00:50:48.995Z,985.00
2023-04-30T00:51:49.040Z,982.00
2023-04-30T00:52:49.048Z,999.00
2023-04-30T00:53:49.059Z,984.00
2023-04-30T00:54:49.056Z,986.00
2023-04-30T00:55:49.075Z,981.00
2023-04-30T00:56:49.099Z,999.00
2023-04-30T00:57:49.114Z,983.00
2023-04-30T00:58:49.143Z,971.00
2023-04-30T00:59:49.186Z,988.00
2023-04-30T01:00:49.166Z,985.00
2023-04-30T01:01:49.206Z,984.00
2023-04-30T01:02:49.231Z,978.00
2023-04-30T01:03:49.242Z,1007.00
2023-04-30T01:04:49.227Z,1003.00
2023-04-30T01:05:49.236Z,1006.00
2023-04-30T01:06:49.273Z,1000.00
2023-04-30T01:07:49.292Z,996.00
2023-04-30T01:08:49.337Z,998.00
2023-04-30T01:09:49.398Z,990.00
2023-04-30T01:10:49.416Z,998.00
2023-04-30T01:11:49.410Z,998.00
2023-04-30T01:12:49.455Z,993.00
2023-04-30T01:13:49.485Z,993.00
2023-04-30T01:14:49.464Z,998.00
2023-04-30T01:15:49.535Z,989.00
2023-04-30T01:16:49.531Z,998.00
2023-04-30T01:17:49.611Z,994.00
2023-04-30T01:18:49.605Z,998.00
2023-04-30T01:19:49.566Z,1003.00
2023-04-30T01:20:49.592Z,1006.00
2023-04-30T01:21:49.607Z,998.00
2023-04-30T01:22:49.620Z,1006.00
2023-04-30T01:23:49.647Z,1002.00
2023-04-30T01:24:49.658Z,1000.00
2023-04-30T01:25:49.677Z,1010.00
2023-04-30T01:26:49.714Z,996.00
2023-04-30T01:27:49.725Z,1002.00
2023-04-30T01:28:49.741Z,991.00
2023-04-30T01:29:49.752Z,984.00
2023-04-30T01:30:49.745Z,989.00
2023-04-30T01:31:49.814Z,983.00
2023-04-30T01:32:49.843Z,981.00
2023-04-30T01:33:49.822Z,984.00
2023-04-30T01:34:49.802Z,976.00
2023-04-30T01:35:49.854Z,973.00
2023-04-30T01:36:49.856Z,967.00
2023-04-30T01:37:49.859Z,975.00
2023-04-30T01:38:49.860Z,970.00
2023-04-30T01:39:49.917Z,981.00
2023-04-30T01:40:49.926Z,979.00
2023-04-30T01:41:49.945Z,971.00
2023-04-30T01:42:49.966Z,960.00
2023-04-30T01:43:50.008Z,962.00
2023-04-30T01:44:49.982Z,962.00
2023-04-30T01:45:50.042Z,966.00
2023-04-30T01:46:50.007Z,966.00
2023-04-30T01:47:50.073Z,945.00
2023-04-30T01:48:50.051Z,949.00
2023-04-30T01:49:50.092Z,956.00
2023-04-30T01:50:50.099Z,943.00
2023-04-30T01:51:50.128Z,953.00
2023-04-30T01:52:50.114Z,952.00
2023-04-30T01:53:50.139Z,942.00
2023-04-30T01:54:50.162Z,940.00
2023-04-30T01:55:50.175Z,953.00
2023-04-30T01:56:50.259Z,956.00
2023-04-30T01:57:50.227Z,957.00
2023-04-30T01:58:50.320Z,962.00
2023-04-30T01:59:50.243Z,955.00
2023-04-30T02:00:50.280Z,952.00
2023-04-30T02:01:50.368Z,959.00
2023-04-30T02:02:50.377Z,960.00
2023-04-30T02:03:50.454Z,949.00
2023-04-30T02:04:50.337Z,959.00
2023-04-30T02:05:50.380Z,958.00
2023-04-30T02:06:50.464Z,964.00
2023-04-30T02:07:50.422Z,960.00
2023-04-30T02:08:50.433Z,957.00
2023-04-30T02:09:50.461Z,959.00
2023-04-30T02:10:50.504Z,955.00
2023-04-30T02:11:50.510Z,945.00
2023-04-30T02:12:50.536Z,963.00
2023-04-30T02:13:50.578Z,955.00
2023-04-30T02:14:50.583Z,958.00
2023-04-30T02:15:50.597Z,953.00
2023-04-30T02:16:50.604Z,944.00
2023-04-30T02:17:50.688Z,940.00
2023-04-30T02:18:50.615Z,937.00
2023-04-30T02:19:50.641Z,940.00
2023-04-30T02:20:50.649Z,952.00
2023-04-30T02:21:50.654Z,945.00
2023-04-30T02:22:50.776Z,952.00
2023-04-30T02:23:50.713Z,947.00
2023-04-30T02:24:50.716Z,939.00
2023-04-30T02:25:50.700Z,938.00
2023-04-30T02:26:50.762Z,943.00
2023-04-30T02:27:50.736Z,940.00
2023-04-30T02:28:50.734Z,955.00
2023-04-30T02:29:50.708Z,955.00
2023-04-30T02:30:50.686Z,945.00
2023-04-30T02:31:50.795Z,938.00
2023-04-30T02:32:50.757Z,953.00
2023-04-30T02:33:50.732Z,949.00
2023-04-30T02:34:50.742Z,942.00
2023-04-30T02:35:50.756Z,956.00
2023-04-30T02:36:50.780Z,946.00
2023-04-30T02:37:50.783Z,944.00
2023-04-30T02:38:50.774Z,940.00
2023-04-30T02:39:50.826Z,940.00
2023-04-30T02:40:50.870Z,931.00
2023-04-30T02:41:50.822Z,943.00
2023-04-30T02:42:50.846Z,941.00
2023-04-30T02:43:50.857Z,950.00
2023-04-30T02:44:50.898Z,940.00
2023-04-30T02:45:50.894Z,939.00
2023-04-30T02:46:50.902Z,959.00
2023-04-30T02:47:50.981Z,962.00
2023-04-30T02:48:50.952Z,944.00
2023-04-30T02:49:50.929Z,957.00
2023-04-30T02:50:50.966Z,958.00
2023-04-30T02:51:50.952Z,965.00
2023-04-30T02:52:50.955Z,955.00
2023-04-30T02:53:50.980Z,953.00
2023-04-30T02:54:50.985Z,950.00
2023-04-30T02:55:51.009Z,939.00
2023-04-30T02:56:50.999Z,946.00
2023-04-30T02:57:51.043Z,956.00
2023-04-30T02:58:51.078Z,937.00
2023-04-30T02:59:51.084Z,935.00
2023-04-30T03:00:51.204Z,933.00
2023-04-30T03:01:51.131Z,935.00
2023-04-30T03:02:51.166Z,950.00
2023-04-30T03:03:51.136Z,940.00
2023-04-30T03:04:51.128Z,939.00
2023-04-30T03:05:51.160Z,942.00
2023-04-30T03:06:51.197Z,929.00
2023-04-30T03:07:51.159Z,929.00
2023-04-30T03:08:51.224Z,924.00
2023-04-30T03:09:51.190Z,934.00
2023-04-30T03:10:51.228Z,931.00
2023-04-30T03:11:51.246Z,922.00
2023-04-30T03:12:51.263Z,935.00
2023-04-30T03:13:51.250Z,932.00
2023-04-30T03:14:51.285Z,924.00
2023-04-30T03:15:51.369Z,928.00
2023-04-30T03:16:51.290Z,920.00
2023-04-30T03:17:51.355Z,936.00
2023-04-30T03:18:51.344Z,924.00
2023-04-30T03:19:51.389Z,937.00
2023-04-30T03:20:51.382Z,927.00
2023-04-30T03:21:51.403Z,932.00
2023-04-30T03:22:51.453Z,930.00
2023-04-30T03:23:51.478Z,951.00
2023-04-30T03:24:51.469Z,935.00
2023-04-30T03:25:51.474Z,932.00
2023-04-30T03:26:51.506Z,939.00
2023-04-30T03:27:51.531Z,935.00
2023-04-30T03:28:51.560Z,940.00
2023-04-30T03:29:51.594Z,936.00
2023-04-30T03:30:51.551Z,928.00
2023-04-30T03:31:51.713Z,941.00
2023-04-30T03:32:51.636Z,931.00
2023-04-30T03:33:51.674Z,932.00
2023-04-30T03:34:51.657Z,934.00
2023-04-30T03:35:51.662Z,944.00
2023-04-30T03:36:51.694Z,929.00
2023-04-30T03:37:51.717Z,933.00
2023-04-30T03:38:51.727Z,919.00
2023-04-30T03:39:51.774Z,923.00
2023-04-30T03:40:51.744Z,910.00
2023-04-30T03:41:51.776Z,922.00
2023-04-30T03:42:51.775Z,915.00
2023-04-30T03:43:51.838Z,899.00
2023-04-30T03:44:51.853Z,908.00
2023-04-30T03:45:51.893Z,914.00
2023-04-30T03:46:51.856Z,913.00
2023-04-30T03:47:51.968Z,925.00
2023-04-30T03:48:51.898Z,913.00
2023-04-30T03:49:52.084Z,910.00
2023-04-30T03:50:51.933Z,914.00
2023-04-30T03:51:51.978Z,904.00
2023-04-30T03:52:51.968Z,915.00
2023-04-30T03:53:51.965Z,911.00
2023-04-30T03:54:51.995Z,907.00
2023-04-30T03:55:52.022Z,903.00
2023-04-30T03:56:52.064Z,912.00
2023-04-30T03:57:52.048Z,915.00
2023-04-30T03:58:52.081Z,911.00
2023-04-30T03:59:52.249Z,906.00
2023-04-30T04:00:52.083Z,907.00
2023-04-30T04:01:52.148Z,905.00
2023-04-30T04:02:52.171Z,895.00
2023-04-30T04:03:52.139Z,896.00
2023-04-30T04:04:52.118Z,897.00
2023-04-30T04:05:52.167Z,892.00
2023-04-30T04:06:52.159Z,899.00
2023-04-30T04:07:52.140Z,883.00
2023-04-30T04:08:52.169Z,885.00
2023-04-30T04:09:52.375Z,888.00
2023-04-30T04:10:52.169Z,887.00
2023-04-30T04:11:52.227Z,901.00
2023-04-30T04:12:52.230Z,902.00
2023-04-30T04:13:52.211Z,896.00
2023-04-30T04:14:52.191Z,905.00
2023-04-30T04:15:52.279Z,898.00
2023-04-30T04:16:52.251Z,900.00
2023-04-30T04:17:52.298Z,888.00
2023-04-30T04:18:52.291Z,881.00
2023-04-30T04:19:52.468Z,879.00
2023-04-30T04:20:52.289Z,884.00
2023-04-30T04:21:52.332Z,870.00
2023-04-30T04:22:52.313Z,875.00
2023-04-30T04:23:52.329Z,879.00
2023-04-30T04:24:52.347Z,879.00
2023-04-30T04:25:52.357Z,877.00
2023-04-30T04:26:52.314Z,878.00
2023-04-30T04:27:52.341Z,879.00
2023-04-30T04:28:52.349Z,860.00
2023-04-30T04:29:52.490Z,849.00
2023-04-30T04:30:52.385Z,833.00
2023-04-30T04:31:52.425Z,828.00
2023-04-30T04:32:52.528Z,842.00
2023-04-30T04:33:52.442Z,828.00
2023-04-30T04:34:52.464Z,831.00
2023-04-30T04:35:52.493Z,825.00
2023-04-30T04:36:52.489Z,828.00
2023-04-30T04:37:52.497Z,829.00
2023-04-30T04:38:52.546Z,828.00
2023-04-30T04:39:52.823Z,829.00
2023-04-30T04:40:52.555Z,820.00
2023-04-30T04:41:52.563Z,827.00
2023-04-30T04:42:52.583Z,829.00
2023-04-30T04:43:52.652Z,829.00
2023-04-30T04:44:52.617Z,836.00
2023-04-30T04:45:52.712Z,826.00
2023-04-30T04:46:52.737Z,836.00
2023-04-30T04:47:52.759Z,827.00
2023-04-30T04:48:52.716Z,811.00
2023-04-30T04:49:52.917Z,831.00
2023-04-30T04:50:52.729Z,841.00
2023-04-30T04:51:52.745Z,835.00
2023-04-30T04:52:52.797Z,836.00
2023-04-30T04:53:52.814Z,827.00
2023-04-30T04:54:52.984Z,832.00
2023-04-30T04:55:52.827Z,835.00
2023-04-30T04:56:52.821Z,833.00
2023-04-30T04:57:52.838Z,828.00
2023-04-30T04:58:52.856Z,821.00
2023-04-30T04:59:53.158Z,825.00
2023-04-30T05:00:52.907Z,824.00
2023-04-30T05:01:52.956Z,840.00
2023-04-30T05:02:53.012Z,841.00
2023-04-30T05:03:53.030Z,822.00
2023-04-30T05:04:52.940Z,831.00
2023-04-30T05:05:52.943Z,819.00
2023-04-30T05:06:52.948Z,813.00
2023-04-30T05:07:52.987Z,826.00
2023-04-30T05:08:52.997Z,820.00
2023-04-30T05:09:53.205Z,810.00
2023-04-30T05:10:53.129Z,817.00
2023-04-30T05:11:53.017Z,829.00
2023-04-30T05:12:53.053Z,824.00
2023-04-30T05:13:53.107Z,820.00
2023-04-30T05:14:53.111Z,824.00
2023-04-30T05:15:53.156Z,813.00
2023-04-30T05:16:53.109Z,809.00
2023-04-30T05:17:53.173Z,806.00
2023-04-30T05:18:53.205Z,818.00
2023-04-30T05:19:53.485Z,824.00
2023-04-30T05:20:53.157Z,818.00
2023-04-30T05:21:53.172Z,815.00
2023-04-30T05:22:53.192Z,808.00
2023-04-30T05:23:53.248Z,822.00
2023-04-30T05:24:53.991Z,818.00
2023-04-30T05:25:53.244Z,818.00
2023-04-30T05:26:53.265Z,806.00
2023-04-30T05:27:53.294Z,808.00
2023-04-30T05:28:53.342Z,813.00
2023-04-30T05:29:53.405Z,811.00
2023-04-30T05:30:53.315Z,815.00
2023-04-30T05:31:53.407Z,806.00
2023-04-30T05:32:53.396Z,798.00
2023-04-30T05:33:53.370Z,799.00
2023-04-30T05:34:53.375Z,796.00
2023-04-30T05:35:53.377Z,794.00
2023-04-30T05:36:53.379Z,792.00
2023-04-30T05:37:53.428Z,793.00
2023-04-30T05:38:53.468Z,779.00
2023-04-30T05:39:53.576Z,793.00
2023-04-30T05:40:53.465Z,783.00
2023-04-30T05:41:53.593Z,790.00
2023-04-30T05:42:53.610Z,782.00
2023-04-30T05:43:53.547Z,787.00
2023-04-30T05:44:53.546Z,783.00
2023-04-30T05:45:53.573Z,795.00
2023-04-30T05:46:53.582Z,790.00
2023-04-30T05:47:53.628Z,792.00
2023-04-30T05:48:53.584Z,791.00
2023-04-30T05:49:53.797Z,789.00
2023-04-30T05:50:53.557Z,788.00
2023-04-30T05:51:53.562Z,776.00
2023-04-30T05:52:53.599Z,790.00
2023-04-30T05:53:53.632Z,774.00
2023-04-30T05:54:53.648Z,789.00
2023-04-30T05:55:53.626Z,771.00
2023-04-30T05:56:53.604Z,778.00
2023-04-30T05:57:53.629Z,768.00
2023-04-30T05:58:53.663Z,770.00
2023-04-30T05:59:53.934Z,768.00
2023-04-30T06:00:54.579Z,768.00
2023-04-30T06:01:53.772Z,780.00
2023-04-30T06:02:53.775Z,786.00
2023-04-30T06:03:53.813Z,788.00
2023-04-30T06:04:53.814Z,780.00
2023-04-30T06:05:53.786Z,766.00
2023-04-30T06:06:53.838Z,774.00
2023-04-30T06:07:53.842Z,777.00
2023-04-30T06:08:53.843Z,771.00
2023-04-30T06:09:54.035Z,743.00
2023-04-30T06:10:53.878Z,770.00
2023-04-30T06:11:53.886Z,763.00
2023-04-30T06:12:53.925Z,770.00
2023-04-30T06:13:53.919Z,756.00
2023-04-30T06:14:53.923Z,742.00
2023-04-30T06:15:53.961Z,745.00
2023-04-30T06:16:54.111Z,775.00
2023-04-30T06:17:54.025Z,763.00
2023-04-30T06:18:54.204Z,765.00
2023-04-30T06:19:54.156Z,741.00
2023-04-30T06:20:53.940Z,745.00
2023-04-30T06:21:53.965Z,750.00
2023-04-30T06:22:53.981Z,724.00
2023-04-30T06:23:53.924Z,720.00
2023-04-30T06:24:53.953Z,734.00
2023-04-30T06:25:53.934Z,749.00
2023-04-30T06:26:53.953Z,759.00
2023-04-30T06:27:54.011Z,760.00
2023-04-30T06:30:12.937Z,500.00
2023-04-30T06:31:12.928Z,500.00
2023-04-30T06:32:12.943Z,500.00
2023-04-30T06:33:12.933Z,500.00
2023-04-30T06:34:12.929Z,500.00
2023-04-30T06:35:12.924Z,500.00
2023-04-30T06:36:12.909Z,499.00
2023-04-30T06:37:12.921Z,500.00
2023-04-30T06:38:12.881Z,505.00
2023-04-30T06:39:12.919Z,505.00
2023-04-30T06:40:12.902Z,505.00
2023-04-30T06:41:12.868Z,507.00
2023-04-30T06:42:12.900Z,503.00
2023-04-30T06:43:12.882Z,511.00
2023-04-30T06:44:12.933Z,516.00
2023-04-30T06:45:12.851Z,521.00
2023-04-30T06:46:12.881Z,521.00
2023-04-30T06:47:12.847Z,524.00
2023-04-30T06:48:12.850Z,520.00
2023-04-30T06:49:12.865Z,524.00
2023-04-30T06:50:12.814Z,525.00
2023-04-30T06:51:12.817Z,521.00
2023-04-30T06:52:12.933Z,532.00
2023-04-30T06:53:12.878Z,526.00
2023-04-30T06:54:12.819Z,534.00
2023-04-30T06:55:12.787Z,530.00
2023-04-30T06:56:12.793Z,533.00
2023-04-30T06:57:12.820Z,531.00
2023-04-30T06:58:12.840Z,532.00
2023-04-30T06:59:12.800Z,526.00
2023-04-30T07:00:12.804Z,532.00
2023-04-30T07:01:12.806Z,531.00
2023-04-30T07:02:12.836Z,529.00
2023-04-30T07:03:13.004Z,522.00
2023-04-30T07:04:12.831Z,513.00
2023-04-30T07:05:12.845Z,503.00
2023-04-30T07:06:12.870Z,503.00
2023-04-30T07:07:12.778Z,506.00
2023-04-30T07:08:12.759Z,503.00
2023-04-30T07:09:12.787Z,500.00
2023-04-30T07:10:12.762Z,500.00
2023-04-30T07:11:12.782Z,500.00
2023-04-30T07:12:12.761Z,500.00
2023-04-30T07:13:12.770Z,500.00
2023-04-30T07:14:12.742Z,506.00
2023-04-30T07:15:12.767Z,511.00
2023-04-30T07:16:13.729Z,517.00
2023-04-30T07:17:12.741Z,524.00
2023-04-30T07:18:12.762Z,529.00
2023-04-30T07:19:12.728Z,540.00
2023-04-30T07:20:12.729Z,548.00
2023-04-30T07:21:12.718Z,558.00
2023-04-30T07:22:12.702Z,561.00
2023-04-30T07:23:12.811Z,565.00
2023-04-30T07:24:12.751Z,570.00
2023-04-30T07:25:12.729Z,571.00
2023-04-30T07:26:12.739Z,576.00
2023-04-30T07:27:12.726Z,570.00
2023-04-30T07:28:12.754Z,574.00
2023-04-30T07:29:12.829Z,572.00
2023-04-30T07:30:12.809Z,559.00
2023-04-30T07:31:12.881Z,559.00
2023-04-30T07:32:12.810Z,548.00
2023-04-30T07:33:12.901Z,549.00
2023-04-30T07:34:12.798Z,548.00
2023-04-30T07:35:12.842Z,552.00
2023-04-30T07:36:12.836Z,548.00
2023-04-30T07:37:12.824Z,544.00
2023-04-30T07:38:12.869Z,542.00
2023-04-30T07:39:12.875Z,542.00
2023-04-30T07:40:15.244Z,537.00
2023-04-30T07:41:12.862Z,537.00
2023-04-30T07:42:12.834Z,539.00
2023-04-30T07:43:12.869Z,545.00
2023-04-30T07:44:12.839Z,555.00
2023-04-30T07:45:12.789Z,566.00
2023-04-30T07:46:12.851Z,569.00
2023-04-30T07:47:12.801Z,571.00
2023-04-30T07:48:12.770Z,575.00
2023-04-30T07:49:12.795Z,571.00
2023-04-30T07:50:12.788Z,575.00
2023-04-30T07:51:12.762Z,571.00
2023-04-30T07:52:12.772Z,573.00
2023-04-30T07:53:12.767Z,572.00
2023-04-30T07:54:12.726Z,566.00
2023-04-30T07:55:12.779Z,563.00
2023-04-30T07:56:12.734Z,557.00
2023-04-30T07:57:12.738Z,558.00
2023-04-30T07:58:12.715Z,553.00
2023-04-30T07:59:12.714Z,555.00
2023-04-30T08:00:12.712Z,549.00
2023-04-30T08:01:12.696Z,558.00
2023-04-30T08:02:12.728Z,556.00
2023-04-30T08:03:12.852Z,561.00
2023-04-30T08:04:12.842Z,561.00
2023-04-30T08:05:12.665Z,558.00
2023-04-30T08:06:12.760Z,560.00
2023-04-30T08:07:12.648Z,554.00
2023-04-30T08:08:12.669Z,553.00
2023-04-30T08:09:12.665Z,548.00
2023-04-30T08:10:12.641Z,547.00
2023-04-30T08:11:12.628Z,550.00
2023-04-30T08:12:12.603Z,548.00
2023-04-30T08:13:12.594Z,543.00
2023-04-30T08:14:12.615Z,543.00
2023-04-30T08:15:12.580Z,539.00
2023-04-30T08:16:12.588Z,541.00
2023-04-30T08:17:12.580Z,538.00
2023-04-30T08:18:12.586Z,539.00
2023-04-30T08:19:12.555Z,520.00
2023-04-30T08:20:12.551Z,524.00
2023-04-30T08:21:12.533Z,518.00
2023-04-30T08:22:12.535Z,517.00
2023-04-30T08:23:12.550Z,519.00
2023-04-30T08:24:12.534Z,522.00
2023-04-30T08:25:12.492Z,526.00
2023-04-30T08:26:12.492Z,535.00
2023-04-30T08:27:12.490Z,535.00
2023-04-30T08:28:12.471Z,538.00
2023-04-30T08:29:12.477Z,544.00
2023-04-30T08:30:12.455Z,547.00
2023-04-30T08:31:12.440Z,554.00
2023-04-30T08:32:12.600Z,556.00
2023-04-30T08:33:12.524Z,556.00
2023-04-30T08:34:12.423Z,557.00
2023-04-30T08:35:12.375Z,553.00
2023-04-30T08:36:12.394Z,553.00
2023-04-30T08:37:12.386Z,553.00
2023-04-30T08:38:12.353Z,556.00
2023-04-30T08:39:12.361Z,551.00
2023-04-30T08:40:12.380Z,555.00
2023-04-30T08:41:12.334Z,556.00
2023-04-30T08:42:12.309Z,560.00
2023-04-30T08:43:12.313Z,564.00
2023-04-30T08:44:12.318Z,567.00
2023-04-30T08:45:12.263Z,566.00
2023-04-30T08:46:12.333Z,565.00
2023-04-30T08:47:12.284Z,568.00
2023-04-30T08:48:12.288Z,564.00
2023-04-30T08:49:12.282Z,570.00
2023-04-30T08:50:12.263Z,568.00
2023-04-30T08:51:12.250Z,564.00
2023-04-30T08:52:12.244Z,563.00
2023-04-30T08:53:12.201Z,565.00
2023-04-30T08:54:12.276Z,565.00
2023-04-30T08:55:12.188Z,568.00
2023-04-30T08:56:12.186Z,565.00
2023-04-30T08:57:12.164Z,564.00
2023-04-30T08:58:12.170Z,567.00
2023-04-30T08:59:12.128Z,564.00
2023-04-30T09:00:12.108Z,560.00
2023-04-30T09:01:12.152Z,565.00
2023-04-30T09:02:12.301Z,560.00
2023-04-30T09:03:12.176Z,559.00
2023-04-30T09:04:12.087Z,564.00
2023-04-30T09:05:12.116Z,568.00
2023-04-30T09:06:12.160Z,569.00
2023-04-30T09:07:12.164Z,564.00
2023-04-30T09:08:12.179Z,561.00
2023-04-30T09:09:12.176Z,567.00
2023-04-30T09:10:12.167Z,566.00
2023-04-30T09:11:12.232Z,566.00
2023-04-30T09:12:12.224Z,567.00
2023-04-30T09:13:12.267Z,561.00
2023-04-30T09:14:12.260Z,564.00
2023-04-30T09:15:12.221Z,562.00
2023-04-30T09:16:12.292Z,560.00
2023-04-30T09:17:12.287Z,554.00
2023-04-30T09:18:12.452Z,564.00
2023-04-30T09:19:12.357Z,556.00
2023-04-30T09:20:12.356Z,550.00
2023-04-30T09:21:12.381Z,544.00
2023-04-30T09:22:12.396Z,538.00
2023-04-30T09:23:12.422Z,535.00
2023-04-30T09:24:12.446Z,536.00
2023-04-30T09:25:12.503Z,538.00
2023-04-30T09:26:12.557Z,539.00
2023-04-30T09:27:12.627Z,541.00
2023-04-30T09:28:12.616Z,545.00
2023-04-30T09:29:12.717Z,542.00
2023-04-30T09:30:12.756Z,542.00
2023-04-30T09:31:12.824Z,547.00
2023-04-30T09:32:12.846Z,543.00
2023-04-30T09:33:12.900Z,542.00
2023-04-30T09:34:12.875Z,537.00
2023-04-30T09:35:12.922Z,537.00
2023-04-30T09:36:12.950Z,537.00
2023-04-30T09:37:13.035Z,540.00
2023-04-30T09:38:13.069Z,535.00
2023-04-30T09:39:15.304Z,540.00
2023-04-30T09:40:13.131Z,543.00
2023-04-30T09:41:13.130Z,539.00
2023-04-30T09:42:13.109Z,541.00
2023-04-30T09:43:13.123Z,543.00
2023-04-30T09:44:13.092Z,541.00
2023-04-30T09:45:13.095Z,547.00
2023-04-30T09:46:13.117Z,545.00
2023-04-30T09:47:13.172Z,543.00
2023-04-30T09:48:17.160Z,545.00
2023-04-30T09:49:13.072Z,545.00
2023-04-30T09:50:13.048Z,546.00
2023-04-30T09:51:13.053Z,539.00
2023-04-30T09:52:13.065Z,544.00
2023-04-30T09:53:13.087Z,544.00
2023-04-30T09:54:13.070Z,538.00
2023-04-30T09:55:13.044Z,539.00
2023-04-30T09:56:13.009Z,535.00
2023-04-30T09:57:13.021Z,540.00
2023-04-30T09:58:13.048Z,534.00
2023-04-30T09:59:13.035Z,538.00
2023-04-30T10:00:13.008Z,534.00
2023-04-30T10:01:13.029Z,542.00
2023-04-30T10:02:13.047Z,536.00
2023-04-30T10:03:13.320Z,542.00
2023-04-30T10:04:13.120Z,539.00
2023-04-30T10:05:13.166Z,537.00
2023-04-30T10:06:13.250Z,539.00
2023-04-30T10:07:15.369Z,540.00
2023-04-30T10:08:13.258Z,541.00
2023-04-30T10:09:13.246Z,544.00
2023-04-30T10:10:13.254Z,546.00
2023-04-30T10:11:13.206Z,545.00
2023-04-30T10:12:13.203Z,537.00
2023-04-30T10:13:13.191Z,542.00
2023-04-30T10:14:13.186Z,540.00
2023-04-30T10:15:13.209Z,539.00
2023-04-30T10:16:13.253Z,538.00
2023-04-30T10:17:13.205Z,541.00
2023-04-30T10:18:13.228Z,538.00
2023-04-30T10:19:13.162Z,536.00
2023-04-30T10:20:13.166Z,534.00
2023-04-30T10:21:13.153Z,532.00
2023-04-30T10:22:13.169Z,544.00
2023-04-30T10:23:13.149Z,539.00
2023-04-30T10:24:13.124Z,538.00
2023-04-30T10:25:13.149Z,537.00
2023-04-30T10:26:13.117Z,542.00
2023-04-30T10:27:13.114Z,542.00
2023-04-30T10:28:13.141Z,535.00
2023-04-30T10:29:13.075Z,537.00
2023-04-30T10:30:13.115Z,549.00
2023-04-30T10:31:13.090Z,546.00
2023-04-30T10:32:13.117Z,545.00
2023-04-30T10:33:15.703Z,545.00
2023-04-30T10:34:13.045Z,545.00
2023-04-30T10:35:13.061Z,545.00
2023-04-30T10:36:13.036Z,546.00
2023-04-30T10:37:13.007Z,547.00
2023-04-30T10:38:12.990Z,545.00
2023-04-30T10:39:13.019Z,546.00
2023-04-30T10:40:13.021Z,544.00
2023-04-30T10:41:12.953Z,543.00
2023-04-30T10:42:12.958Z,540.00
2023-04-30T10:43:12.954Z,541.00
2023-04-30T10:44:12.961Z,539.00
2023-04-30T10:45:12.932Z,537.00
2023-04-30T10:46:13.004Z,538.00
2023-04-30T10:47:12.913Z,539.00
2023-04-30T10:48:12.968Z,537.00
2023-04-30T10:49:12.898Z,534.00
2023-04-30T10:50:12.889Z,529.00
2023-04-30T10:51:12.894Z,528.00
2023-04-30T10:52:12.880Z,528.00
2023-04-30T10:53:12.849Z,536.00
2023-04-30T10:54:12.872Z,534.00
2023-04-30T10:55:12.883Z,533.00
2023-04-30T10:56:12.839Z,531.00
2023-04-30T10:57:12.807Z,530.00
2023-04-30T10:58:12.864Z,523.00
2023-04-30T10:59:12.849Z,524.00
2023-04-30T11:00:12.850Z,522.00
2023-04-30T11:01:12.868Z,528.00
2023-04-30T11:02:12.801Z,525.00
2023-04-30T11:03:12.819Z,524.00
2023-04-30T11:04:12.761Z,512.00
2023-04-30T11:05:12.890Z,511.00
2023-04-30T11:06:12.799Z,513.00
2023-04-30T11:07:12.782Z,512.00
2023-04-30T11:08:12.786Z,517.00
2023-04-30T11:09:12.807Z,521.00
2023-04-30T11:10:12.879Z,518.00
2023-04-30T11:11:12.862Z,525.00
2023-04-30T11:12:12.898Z,525.00
2023-04-30T11:13:12.970Z,524.00
2023-04-30T11:14:13.015Z,519.00
2023-04-30T11:15:13.053Z,529.00
2023-04-30T11:16:13.158Z,524.00
2023-04-30T11:17:13.143Z,518.00
2023-04-30T11:18:13.211Z,517.00
2023-04-30T11:19:13.249Z,520.00
2023-04-30T11:20:13.244Z,521.00
2023-04-30T11:21:13.279Z,520.00
2023-04-30T11:22:13.366Z,526.00
2023-04-30T11:23:17.486Z,525.00
2023-04-30T11:24:14.393Z,525.00
2023-04-30T11:25:13.415Z,526.00
2023-04-30T11:26:13.398Z,527.00
2023-04-30T11:27:13.376Z,528.00
2023-04-30T11:28:13.384Z,526.00
2023-04-30T11:29:13.461Z,523.00
2023-04-30T11:30:13.352Z,520.00
2023-04-30T11:31:15.147Z,518.00
2023-04-30T11:32:13.334Z,528.00
2023-04-30T11:33:13.328Z,530.00
2023-04-30T11:34:13.373Z,530.00
2023-04-30T11:35:13.434Z,529.00
2023-04-30T11:36:13.452Z,532.00
2023-04-30T11:37:13.504Z,524.00
2023-04-30T11:38:13.514Z,529.00
2023-04-30T11:39:13.606Z,528.00
2023-04-30T11:40:13.670Z,537.00
2023-04-30T11:41:13.665Z,534.00
2023-04-30T11:42:13.705Z,538.00
2023-04-30T11:43:13.780Z,539.00
2023-04-30T11:44:13.840Z,542.00
2023-04-30T11:45:13.872Z,533.00
2023-04-30T11:46:14.035Z,533.00
2023-04-30T11:47:13.938Z,536.00
2023-04-30T11:48:14.000Z,530.00
2023-04-30T11:49:14.051Z,530.00
2023-04-30T11:50:14.229Z,530.00
2023-04-30T11:51:14.149Z,532.00
2023-04-30T11:52:14.174Z,533.00
2023-04-30T11:53:14.223Z,528.00
2023-04-30T11:54:14.285Z,530.00
2023-04-30T11:55:14.316Z,522.00
2023-04-30T11:56:14.346Z,517.00
2023-04-30T11:57:14.386Z,515.00
2023-04-30T11:58:14.508Z,512.00
2023-04-30T11:59:14.482Z,508.00
2023-04-30T12:00:14.508Z,514.00
2023-04-30T12:01:14.564Z,509.00
2023-04-30T12:02:14.641Z,512.00
2023-04-30T12:03:14.697Z,511.00
2023-04-30T12:04:14.851Z,515.00
2023-04-30T12:05:14.704Z,510.00
2023-04-30T12:06:14.769Z,517.00
2023-04-30T12:07:14.808Z,518.00
2023-04-30T12:08:14.834Z,520.00
2023-04-30T12:09:14.908Z,526.00
2023-04-30T12:10:14.931Z,524.00
2023-04-30T12:11:14.981Z,526.00
2023-04-30T12:12:15.022Z,519.00
2023-04-30T12:13:15.050Z,519.00
2023-04-30T12:14:15.129Z,524.00
2023-04-30T12:15:15.168Z,517.00
2023-04-30T12:16:15.324Z,515.00
2023-04-30T12:17:15.275Z,515.00
2023-04-30T12:18:15.336Z,519.00
2023-04-30T12:19:15.377Z,512.00
2023-04-30T12:20:15.388Z,510.00
2023-04-30T12:21:15.580Z,513.00
2023-04-30T12:22:15.483Z,513.00
2023-04-30T12:23:15.523Z,513.00
2023-04-30T12:24:15.585Z,515.00
2023-04-30T12:25:15.639Z,518.00
2023-04-30T12:26:15.701Z,520.00
2023-04-30T12:27:15.726Z,519.00
2023-04-30T12:28:15.759Z,512.00
2023-04-30T12:29:15.839Z,513.00
2023-04-30T12:30:15.863Z,512.00